createdAt,value
2023-01-10T00:01:27.984Z,4.00
2023-01-10T00:04:06.946Z,9.93
2023-01-10T00:06:35.160Z,6.13
2023-01-10T00:09:08.686Z,7.43
2023-01-10T00:14:20.252Z,7.82
2023-01-10T00:16:46.809Z,8.13
2023-01-10T00:19:13.909Z,11.52
2023-01-10T00:21:44.294Z,5.60
2023-01-10T00:24:11.249Z,10.93
2023-01-10T00:26:38.086Z,10.00
2023-01-10T00:29:05.634Z,6.40
2023-01-10T00:31:32.801Z,11.32
2023-01-10T00:33:59.645Z,14.43
2023-01-10T00:36:26.231Z,10.90
2023-01-10T00:38:59.502Z,9.50
2023-01-10T00:41:27.070Z,7.57
2023-01-10T00:43:53.922Z,9.93
2023-01-10T00:46:22.253Z,11.70
2023-01-10T00:48:50.181Z,7.03
2023-01-10T00:51:17.313Z,8.23
2023-01-10T00:53:44.789Z,6.95
2023-01-10T00:56:13.142Z,6.97
2023-01-10T00:58:40.553Z,12.05
2023-01-10T01:01:07.813Z,4.77
2023-01-10T01:03:38.740Z,7.28
2023-01-10T01:06:08.846Z,9.25
2023-01-10T01:08:38.722Z,10.23
2023-01-10T01:11:05.616Z,8.90
2023-01-10T01:13:34.922Z,8.83
2023-01-10T01:16:02.304Z,8.70
2023-01-10T01:18:29.153Z,8.32
2023-01-10T01:20:59.050Z,6.53
2023-01-10T01:23:27.419Z,6.82
2023-01-10T01:25:56.690Z,11.40
2023-01-10T01:28:24.050Z,10.48
2023-01-10T01:30:55.568Z,15.77
2023-01-10T01:33:26.087Z,8.30
2023-01-10T01:35:52.936Z,16.08
2023-01-10T01:41:02.701Z,10.30
2023-01-10T01:43:31.665Z,7.53
2023-01-10T01:46:04.338Z,7.55
2023-01-10T01:48:36.702Z,9.13
2023-01-10T01:51:10.968Z,4.80
2023-01-10T01:53:43.413Z,7.10
2023-01-10T01:56:17.571Z,10.10
2023-01-10T01:58:51.093Z,4.63
2023-01-10T02:01:27.923Z,5.40
2023-01-10T02:04:01.397Z,8.07
2023-01-10T02:06:28.781Z,7.07
2023-01-10T02:09:06.212Z,4.82
2023-01-10T02:11:38.788Z,10.18
2023-01-10T02:14:08.889Z,5.68
2023-01-10T02:16:37.677Z,6.63
2023-01-10T02:19:12.599Z,5.10
2023-01-10T02:22:07.462Z,6.43
2023-01-10T02:25:10.859Z,10.48
2023-01-10T02:27:56.200Z,9.13
2023-01-10T02:30:46.900Z,11.00
2023-01-10T02:33:20.998Z,6.93
2023-01-10T02:36:13.784Z,9.18
2023-01-10T02:38:59.361Z,6.95
2023-01-10T02:41:38.314Z,6.53
2023-01-10T02:44:11.540Z,9.60
2023-01-10T02:46:41.325Z,5.30
2023-01-10T02:49:12.345Z,9.13
2023-01-10T02:51:38.981Z,10.35
2023-01-10T02:54:12.468Z,7.13
2023-01-10T02:57:16.981Z,5.57
2023-01-10T03:00:38.007Z,11.73
2023-01-10T03:03:17.015Z,8.30
2023-01-10T03:06:02.289Z,8.32
2023-01-10T03:08:35.975Z,5.95
2023-01-10T03:11:07.664Z,9.43
2023-01-10T03:13:57.490Z,10.15
2023-01-10T03:16:30.251Z,9.48
2023-01-10T03:19:00.653Z,12.02
2023-01-10T03:21:35.420Z,8.18
2023-01-10T03:24:18.371Z,7.77
2023-01-10T03:26:56.724Z,11.27
2023-01-10T03:29:29.024Z,11.02
2023-01-10T03:32:03.222Z,6.93
2023-01-10T03:34:33.241Z,11.52
2023-01-10T03:37:09.967Z,8.67
2023-01-10T03:39:46.267Z,10.18
2023-01-10T03:42:29.313Z,6.88
2023-01-10T03:45:13.156Z,8.45
2023-01-10T03:47:44.127Z,6.43
2023-01-10T03:50:20.984Z,8.67
2023-01-10T03:52:49.225Z,3.67
2023-01-10T03:55:23.513Z,12.15
2023-01-10T03:57:52.036Z,6.40
2023-01-10T04:00:22.175Z,5.15
2023-01-10T04:02:49.649Z,8.07
2023-01-10T04:05:16.532Z,8.65
2023-01-10T04:07:44.920Z,10.82
2023-01-10T04:10:17.401Z,5.88
2023-01-10T04:12:44.840Z,9.57
2023-01-10T04:15:12.595Z,10.67
2023-01-10T04:17:46.705Z,5.93
2023-01-10T04:20:14.806Z,10.40
2023-01-10T04:22:41.708Z,8.27
2023-01-10T04:25:11.585Z,10.73
2023-01-10T04:27:41.946Z,5.93
2023-01-10T04:30:10.025Z,7.45
2023-01-10T04:32:37.798Z,7.78
2023-01-10T04:35:04.813Z,8.70
2023-01-10T04:37:32.804Z,5.85
2023-01-10T04:40:05.637Z,10.87
2023-01-10T04:42:51.104Z,10.52
2023-01-10T04:45:22.512Z,8.77
2023-01-10T04:47:59.053Z,8.45
2023-01-10T04:50:32.429Z,11.07
2023-01-10T04:52:59.853Z,4.83
2023-01-10T04:55:37.926Z,4.80
2023-01-10T04:58:06.738Z,7.35
2023-01-10T05:00:35.193Z,9.90
2023-01-10T05:03:02.276Z,15.55
2023-01-10T05:05:29.251Z,6.93
2023-01-10T05:07:56.709Z,11.85
2023-01-10T05:10:29.010Z,6.35
2023-01-10T05:12:56.207Z,11.88
2023-01-10T05:15:25.375Z,8.63
2023-01-10T05:18:01.459Z,8.00
2023-01-10T05:20:29.408Z,9.60
2023-01-10T05:22:56.222Z,8.60
2023-01-10T05:25:24.768Z,8.45
2023-01-10T05:27:51.270Z,12.90
2023-01-10T05:30:19.034Z,8.33
2023-01-10T05:32:46.338Z,7.63
2023-01-10T05:35:15.199Z,7.65
2023-01-10T05:37:49.452Z,5.82
2023-01-10T05:40:17.123Z,13.80
2023-01-10T05:42:44.064Z,4.40
2023-01-10T05:45:11.788Z,9.52
2023-01-10T05:47:38.975Z,11.85
2023-01-10T05:50:06.742Z,12.20
2023-01-10T05:52:34.627Z,11.27
2023-01-10T05:55:02.322Z,9.00
2023-01-10T05:57:58.317Z,12.00
2023-01-10T06:00:27.508Z,9.85
2023-01-10T06:03:00.653Z,16.60
2023-01-10T06:05:28.241Z,11.35
2023-01-10T06:08:20.891Z,13.37
2023-01-10T06:10:53.507Z,12.82
2023-01-10T06:13:33.691Z,10.52
2023-01-10T06:16:29.592Z,15.63
2023-01-10T06:18:56.450Z,8.27
2023-01-10T06:21:24.148Z,10.90
2023-01-10T06:24:13.816Z,6.43
2023-01-10T06:26:42.096Z,9.15
2023-01-10T06:29:11.539Z,10.40
2023-01-10T06:31:40.833Z,11.00
2023-01-10T06:34:22.853Z,14.33
2023-01-10T06:36:49.963Z,15.10
2023-01-10T06:39:20.557Z,13.70
2023-01-10T06:41:51.589Z,10.82
2023-01-10T06:44:20.530Z,8.10
2023-01-10T06:47:21.444Z,10.33
2023-01-10T06:49:49.724Z,14.82
2023-01-10T06:52:17.180Z,10.63
2023-01-10T06:54:50.660Z,11.52
2023-01-10T06:57:20.112Z,9.60
2023-01-10T06:59:49.410Z,9.23
2023-01-10T07:05:36.294Z,17.70
2023-01-10T07:08:06.106Z,14.35
2023-01-10T07:10:35.381Z,12.13
2023-01-10T07:13:01.944Z,8.17
2023-01-10T07:15:33.954Z,12.02
2023-01-10T07:18:01.043Z,11.05
2023-01-10T07:20:28.867Z,14.40
2023-01-10T07:23:02.510Z,9.88
2023-01-10T07:25:35.559Z,10.90
2023-01-10T07:28:04.623Z,16.50
2023-01-10T07:30:31.246Z,14.85
2023-01-10T07:32:59.375Z,11.35
2023-01-10T07:35:26.275Z,10.75
2023-01-10T07:37:55.571Z,19.23
2023-01-10T07:40:22.468Z,16.05
2023-01-10T07:42:56.521Z,12.43
2023-01-10T07:45:24.902Z,22.27
2023-01-10T07:51:25.771Z,12.60
2023-01-10T07:53:56.629Z,13.05
2023-01-10T07:56:23.284Z,21.70
2023-01-10T07:58:53.979Z,13.98
2023-01-10T08:01:25.524Z,15.35
2023-01-10T08:03:52.890Z,21.60
2023-01-10T08:06:19.557Z,14.35
2023-01-10T08:08:46.317Z,11.40
2023-01-10T08:11:13.023Z,16.45
2023-01-10T08:13:47.028Z,13.30
2023-01-10T08:16:18.736Z,12.53
2023-01-10T08:18:45.563Z,12.70
2023-01-10T08:21:12.498Z,16.42
2023-01-10T08:23:40.194Z,13.45
2023-01-10T08:26:06.898Z,9.30
2023-01-10T08:28:34.385Z,19.87
2023-01-10T08:31:05.983Z,14.88
2023-01-10T08:33:35.403Z,15.23
2023-01-10T08:36:02.263Z,14.75
2023-01-10T08:38:29.852Z,18.33
2023-01-10T08:41:00.054Z,11.37
2023-01-10T08:43:30.810Z,12.52
2023-01-10T08:45:57.645Z,12.65
2023-01-10T08:48:24.705Z,9.07
2023-01-10T08:50:56.074Z,8.43
2023-01-10T08:53:25.714Z,15.57
2023-01-10T08:55:52.786Z,20.50
2023-01-10T08:58:22.025Z,11.70
2023-01-10T09:00:48.642Z,14.93
2023-01-10T09:03:17.387Z,13.57
2023-01-10T09:05:44.666Z,15.13
2023-01-10T09:08:12.805Z,14.07
2023-01-10T09:10:44.004Z,10.10
2023-01-10T09:13:12.497Z,17.63
2023-01-10T09:15:40.080Z,12.07
2023-01-10T09:18:08.225Z,15.53
2023-01-10T09:20:37.772Z,15.00
2023-01-10T09:23:09.203Z,16.33
2023-01-10T09:25:46.187Z,12.88
2023-01-10T09:28:14.188Z,13.02
2023-01-10T09:30:40.886Z,15.20
2023-01-10T09:33:12.111Z,14.65
2023-01-10T09:35:43.041Z,11.70
2023-01-10T09:38:13.153Z,17.83
2023-01-10T09:40:55.903Z,13.95
2023-01-10T09:43:31.510Z,16.37
2023-01-10T09:46:05.507Z,12.50
2023-01-10T09:48:44.535Z,15.00
2023-01-10T09:51:29.524Z,10.85
2023-01-10T09:54:11.288Z,15.75
2023-01-10T09:56:42.255Z,8.93
2023-01-10T09:59:20.053Z,17.88
2023-01-10T10:01:50.353Z,12.10
2023-01-10T10:04:23.720Z,12.02
2023-01-10T10:06:52.906Z,13.57
2023-01-10T10:09:25.886Z,16.97
2023-01-10T10:12:08.158Z,17.67
2023-01-10T10:14:46.141Z,14.43
2023-01-10T10:17:37.368Z,10.98
2023-01-10T10:20:24.185Z,10.10
2023-01-10T10:23:06.373Z,19.40
2023-01-10T10:25:50.179Z,15.77
2023-01-10T10:28:53.815Z,10.68
2023-01-10T10:31:40.915Z,14.10
2023-01-10T10:34:15.274Z,24.73
2023-01-10T10:36:52.552Z,12.30
2023-01-10T10:39:23.309Z,13.70
2023-01-10T10:41:55.557Z,12.43
2023-01-10T10:44:50.995Z,12.05
2023-01-10T10:47:28.804Z,15.93
2023-01-10T10:50:01.938Z,17.27
2023-01-10T10:52:31.615Z,9.40
2023-01-10T10:55:06.139Z,18.10
2023-01-10T10:57:38.583Z,14.43
2023-01-10T11:00:17.261Z,15.20
2023-01-10T11:03:03.380Z,10.23
2023-01-10T11:05:34.851Z,21.85
2023-01-10T11:08:07.939Z,16.98
2023-01-10T11:10:36.277Z,14.13
2023-01-10T11:13:06.917Z,9.65
2023-01-10T11:15:47.882Z,13.30
2023-01-10T11:18:19.366Z,13.07
2023-01-10T11:20:52.664Z,12.75
2023-01-10T11:23:29.198Z,13.95
2023-01-10T11:26:00.207Z,14.95
2023-01-10T11:28:32.634Z,17.90
2023-01-10T11:31:04.810Z,11.32
2023-01-10T11:33:33.829Z,18.95
2023-01-10T11:36:03.404Z,18.05
2023-01-10T11:38:34.037Z,19.92
2023-01-10T11:41:02.657Z,15.07
2023-01-10T11:43:34.098Z,17.40
2023-01-10T11:46:06.037Z,17.85
2023-01-10T11:49:06.777Z,15.98
2023-01-10T11:51:38.223Z,14.35
2023-01-10T11:54:07.123Z,16.17
2023-01-10T11:56:36.306Z,13.43
2023-01-10T11:59:10.316Z,20.13
2023-01-10T12:01:57.882Z,17.42
2023-01-10T12:04:34.406Z,12.35
2023-01-10T12:07:09.379Z,10.43
2023-01-10T12:09:40.788Z,10.13
2023-01-10T12:12:27.008Z,13.27
2023-01-10T12:14:55.579Z,19.27
2023-01-10T12:17:26.834Z,14.45
2023-01-10T12:19:57.460Z,15.77
2023-01-10T12:26:12.412Z,15.27
2023-01-10T12:32:51.907Z,9.68
2023-01-10T12:42:57.362Z,13.50
2023-01-10T12:45:30.473Z,10.70
2023-01-10T12:52:26.378Z,15.03
2023-01-10T13:04:19.563Z,13.63
2023-01-10T13:06:49.709Z,11.27
2023-01-10T13:09:23.160Z,16.10
2023-01-10T13:11:59.387Z,8.35
2023-01-10T13:14:34.188Z,12.98
2023-01-10T13:17:16.186Z,9.80
2023-01-10T13:19:42.785Z,8.47
2023-01-10T13:22:20.511Z,7.50
2023-01-10T13:24:56.921Z,12.82
2023-01-10T13:27:25.447Z,11.95
2023-01-10T13:30:30.079Z,13.23
2023-01-10T13:40:05.745Z,10.25
2023-01-10T13:42:48.128Z,9.13
2023-01-10T13:45:28.215Z,6.72
2023-01-10T13:48:01.781Z,5.87
2023-01-10T13:51:00.895Z,10.35
2023-01-10T13:54:02.167Z,5.88
2023-01-10T13:56:43.297Z,15.30
2023-01-10T14:00:05.544Z,4.57
2023-01-10T14:02:33.547Z,7.37
2023-01-10T14:05:07.573Z,12.73
2023-01-10T14:07:45.863Z,10.77
2023-01-10T14:10:21.696Z,8.85
2023-01-10T14:13:20.802Z,11.43
2023-01-10T14:15:48.246Z,7.33
2023-01-10T14:18:23.692Z,8.07
2023-01-10T14:21:04.105Z,11.15
2023-01-10T14:23:37.133Z,11.43
2023-01-10T14:26:11.125Z,9.20
2023-01-10T14:28:44.895Z,9.50
2023-01-10T14:31:19.788Z,10.57
2023-01-10T14:33:47.488Z,3.90
2023-01-10T14:36:18.629Z,6.18
2023-01-10T14:38:47.677Z,10.75
2023-01-10T14:41:19.753Z,7.90
2023-01-10T14:43:53.523Z,8.35
2023-01-10T14:46:31.804Z,10.18
2023-01-10T14:49:00.019Z,8.82
2023-01-10T14:51:32.622Z,6.93
2023-01-10T14:54:01.724Z,8.27
2023-01-10T14:56:32.565Z,6.40
2023-01-10T14:59:18.293Z,7.30
2023-01-10T15:01:51.964Z,8.00
2023-01-10T15:04:24.593Z,10.27
2023-01-10T15:06:55.474Z,8.63
2023-01-10T15:09:23.321Z,10.63
2023-01-10T15:11:52.524Z,12.82
2023-01-10T15:14:26.515Z,16.75
2023-01-10T15:16:56.918Z,11.27
2023-01-10T15:19:26.281Z,12.03
2023-01-10T15:21:53.864Z,9.40
2023-01-10T15:24:33.366Z,19.65
2023-01-10T15:27:04.541Z,8.13
2023-01-10T15:29:43.926Z,9.70
2023-01-10T15:32:21.079Z,7.30
2023-01-10T15:34:50.857Z,6.47
2023-01-10T15:37:23.165Z,9.65
2023-01-10T15:39:50.248Z,7.68
2023-01-10T15:42:22.104Z,10.98
2023-01-10T15:44:56.089Z,5.20
2023-01-10T15:47:35.947Z,7.95
2023-01-10T15:50:17.020Z,10.32
2023-01-10T15:52:48.035Z,12.60
2023-01-10T15:55:35.916Z,8.23
2023-01-10T15:58:03.133Z,11.10
2023-01-10T16:00:32.364Z,5.78
2023-01-10T16:03:01.858Z,13.52
2023-01-10T16:05:30.409Z,7.50
2023-01-10T16:07:58.091Z,6.72
2023-01-10T16:10:27.164Z,9.07
2023-01-10T16:13:08.954Z,12.02
2023-01-10T16:15:41.267Z,8.30
2023-01-10T16:18:10.972Z,7.30
2023-01-10T16:20:46.272Z,7.68
2023-01-10T16:23:18.493Z,11.63
2023-01-10T16:25:49.345Z,12.10
2023-01-10T16:28:19.638Z,8.52
2023-01-10T16:30:56.680Z,11.27
2023-01-10T16:33:26.323Z,15.43
2023-01-10T16:35:58.457Z,14.13
2023-01-10T16:38:28.128Z,5.03
2023-01-10T16:40:59.625Z,9.95
2023-01-10T16:43:28.382Z,13.13
2023-01-10T16:46:03.535Z,10.95
2023-01-10T16:48:32.296Z,9.00
2023-01-10T16:51:19.446Z,9.88
2023-01-10T16:53:46.919Z,9.00
2023-01-10T16:56:16.231Z,10.73
2023-01-10T16:58:47.674Z,7.90
2023-01-10T17:01:20.845Z,9.80
2023-01-10T17:03:48.220Z,7.72
2023-01-10T17:06:15.974Z,15.30
2023-01-10T17:08:46.958Z,7.70
2023-01-10T17:11:21.298Z,11.35
2023-01-10T17:13:49.672Z,7.47
2023-01-10T17:16:19.840Z,11.95
2023-01-10T17:18:47.804Z,11.77
2023-01-10T17:21:18.569Z,16.80
2023-01-10T17:23:47.465Z,9.60
2023-01-10T17:26:17.927Z,10.70
2023-01-10T17:28:45.522Z,9.95
2023-01-10T17:31:12.846Z,10.98
2023-01-10T17:33:41.197Z,8.80
2023-01-10T17:36:10.872Z,8.20
2023-01-10T17:38:40.416Z,8.30
2023-01-10T17:41:09.957Z,10.98
2023-01-10T17:43:38.560Z,10.50
2023-01-10T17:46:06.526Z,6.70
2023-01-10T17:48:33.645Z,6.07
2023-01-10T17:51:02.909Z,7.53
2023-01-10T17:53:32.716Z,10.80
2023-01-10T17:55:59.620Z,10.65
2023-01-10T17:58:27.437Z,9.30
2023-01-10T18:00:54.915Z,8.93
2023-01-10T18:03:22.431Z,4.27
2023-01-10T18:05:51.993Z,12.30
2023-01-10T18:08:23.382Z,7.03
2023-01-10T18:10:52.708Z,7.80
2023-01-10T18:13:20.138Z,7.85
2023-01-10T18:15:48.635Z,4.53
2023-01-10T18:18:17.431Z,5.38
2023-01-10T18:20:49.791Z,5.55
2023-01-10T18:23:17.063Z,9.63
2023-01-10T18:25:52.438Z,9.60
2023-01-10T18:28:31.928Z,10.67
2023-01-10T18:31:07.452Z,7.43
2023-01-10T18:33:35.538Z,2.80
2023-01-10T18:36:04.302Z,10.38
2023-01-10T18:38:31.938Z,6.80
2023-01-10T18:41:01.945Z,8.23
2023-01-10T18:43:28.898Z,4.20
2023-01-10T18:46:00.565Z,4.32
2023-01-10T18:48:27.842Z,8.05
2023-01-10T18:50:55.014Z,4.68
2023-01-10T18:53:22.499Z,2.53
2023-01-10T18:55:53.638Z,5.03
2023-01-10T18:58:23.736Z,6.88
2023-01-10T19:00:51.051Z,6.15
2023-01-10T19:03:21.526Z,10.68
2023-01-10T19:05:50.112Z,7.80
2023-01-10T19:08:17.098Z,4.07
2023-01-10T19:11:11.333Z,6.30
2023-01-10T19:13:39.017Z,4.40
2023-01-10T19:16:12.097Z,4.18
2023-01-10T19:18:39.052Z,4.13
2023-01-10T19:21:06.889Z,3.83
2023-01-10T19:23:33.815Z,2.75
2023-01-10T19:26:01.452Z,5.22
2023-01-10T19:28:29.604Z,5.25
2023-01-10T19:31:04.620Z,4.70
2023-01-10T19:33:34.936Z,6.53
2023-01-10T19:36:10.849Z,8.18
2023-01-10T19:38:38.607Z,6.43
2023-01-10T19:41:09.942Z,5.60
2023-01-10T19:43:39.058Z,4.17
2023-01-10T19:46:18.953Z,4.00
2023-01-10T19:48:49.768Z,6.88
2023-01-10T19:51:18.835Z,2.83
2023-01-10T19:53:47.457Z,5.32
2023-01-10T19:56:18.544Z,4.17
2023-01-10T19:58:55.137Z,6.55
2023-01-10T20:01:25.657Z,5.95
2023-01-10T20:03:53.620Z,4.22
2023-01-10T20:06:39.109Z,5.22
2023-01-10T20:09:11.077Z,2.80
2023-01-10T20:11:43.720Z,2.63
2023-01-10T20:14:13.619Z,2.83
2023-01-10T20:19:55.207Z,6.05
2023-01-10T20:22:24.789Z,2.73
2023-01-10T20:25:06.603Z,3.92
2023-01-10T20:30:44.421Z,3.53
2023-01-10T20:33:43.844Z,5.45
2023-01-10T20:36:26.906Z,2.10
2023-01-10T20:39:03.589Z,4.82
2023-01-10T20:41:35.497Z,3.10
2023-01-10T20:44:02.998Z,4.70
2023-01-10T20:46:49.906Z,4.28
2023-01-10T20:49:17.100Z,3.00
2023-01-10T20:51:48.500Z,1.98
2023-01-10T20:54:17.480Z,3.90
2023-01-10T20:56:48.931Z,3.03
2023-01-10T20:59:50.464Z,2.33
2023-01-10T21:02:17.601Z,0.87
2023-01-10T21:07:34.183Z,4.07
2023-01-10T21:10:04.792Z,2.55
2023-01-10T21:12:35.953Z,3.05
2023-01-10T21:15:03.240Z,2.77
2023-01-10T21:17:29.893Z,1.33
2023-01-10T21:19:57.281Z,2.90
2023-01-10T21:22:45.762Z,1.95
2023-01-10T21:25:12.678Z,1.73
2023-01-10T21:27:44.024Z,1.77
2023-01-10T21:30:41.466Z,1.13
2023-01-10T21:33:16.421Z,1.85
2023-01-10T21:36:01.392Z,2.13
2023-01-10T21:38:51.862Z,1.75
2023-01-10T21:41:27.763Z,1.60
2023-01-10T21:44:00.731Z,2.72
2023-01-10T21:47:20.128Z,2.03
2023-01-10T21:49:49.438Z,1.67
2023-01-10T21:52:19.794Z,2.47
2023-01-10T21:54:51.155Z,2.50
2023-01-10T21:57:18.449Z,1.50
2023-01-10T21:59:50.395Z,1.00
2023-01-10T22:02:17.962Z,1.80
2023-01-10T22:04:46.849Z,1.75
2023-01-10T22:07:14.314Z,1.30
2023-01-10T22:09:47.317Z,0.73
2023-01-10T22:12:16.049Z,1.92
2023-01-10T22:14:45.280Z,3.83
2023-01-10T22:17:20.516Z,1.17
2023-01-10T22:19:47.253Z,1.53
2023-01-10T22:22:15.205Z,2.05
2023-01-10T22:24:44.452Z,0.75
2023-01-10T22:27:11.187Z,1.23
2023-01-10T22:29:39.993Z,2.00
2023-01-10T22:32:08.636Z,1.67
2023-01-10T22:34:35.642Z,2.13
2023-01-10T22:37:13.590Z,0.85
2023-01-10T22:39:40.578Z,2.75
2023-01-10T22:42:10.496Z,0.77
2023-01-10T22:44:43.958Z,1.00
2023-01-10T22:47:13.001Z,1.17
2023-01-10T22:49:39.725Z,1.20
2023-01-10T22:52:11.695Z,0.70
2023-01-10T22:54:41.114Z,0.82
2023-01-10T22:57:11.125Z,0.77
2023-01-10T22:59:39.835Z,1.55
2023-01-10T23:02:15.023Z,0.63
2023-01-10T23:04:50.139Z,1.35
2023-01-10T23:07:17.633Z,1.83
2023-01-10T23:09:45.961Z,0.60
2023-01-10T23:12:14.820Z,1.40
2023-01-10T23:14:41.839Z,1.67
2023-01-10T23:17:10.756Z,0.43
2023-01-10T23:19:37.600Z,0.50
2023-01-10T23:22:52.025Z,2.37
2023-01-10T23:25:44.542Z,0.40
2023-01-10T23:28:12.033Z,1.05
2023-01-10T23:30:39.486Z,1.20
2023-01-10T23:33:08.022Z,1.17
2023-01-10T23:35:34.632Z,0.60
2023-01-10T23:38:10.452Z,1.23
2023-01-10T23:40:37.249Z,1.17
2023-01-10T23:43:04.406Z,0.43
2023-01-10T23:45:37.750Z,0.60
2023-01-10T23:48:07.837Z,5.37
2023-01-10T23:50:36.747Z,0.90
2023-01-10T23:53:04.795Z,0.93
2023-01-10T23:55:37.599Z,1.70
2023-01-10T23:58:17.158Z,0.47
